Latest Weather Observations for Latrobe Valley

IDV60801

Issued at 7:02 pm EDT Tuesday 28 March 2017 (issued every 30 minutes, with the page automatically refreshed every 10 minutes)

About weather observations | Map of weather stations | Latest weather observations for VIC | Other Formats
Station Details ID: 085280 Name: LATROBE VALLEY AIRPORT Lat: -38.21 Lon: 146.47 Height: 55.7 m
Data from the previous 72 hours. | See also: Recent months at Latrobe Valley
Date/Time
EDT
Temp
°C
App
Temp
°C
Dew
Point
°C
Rel
Hum
%
Delta-T
°C
Wind Press
QNH
hPa
Press
MSL
hPa
Rain since
9am
mm
Dir  Spd
km/h
Gust
km/h
Spd
kts
Gust
kts
28/07:00pm 20.1 18.6 9.1 49 5.8 SW 7 11 4 6 1011.7 1011.6 0.0
28/06:30pm 21.5 18.7 8.4 43 6.9 WSW 13 17 7 9 1011.6 1011.5 0.0
28/06:00pm 22.4 18.7 8.1 40 7.5 SW 17 20 9 11 1011.3 1011.2 0.0
28/05:30pm 23.2 19.7 8.9 40 7.7 W 17 22 9 12 1011.4 1011.3 0.0
28/05:00pm 23.2 19.6 8.5 39 7.8 WSW 17 26 9 14 1011.2 1011.1 0.0
28/04:30pm 23.0 19.0 8.3 39 7.8 W 19 26 10 14 1011.4 1011.3 0.0
28/04:00pm 22.8 18.8 9.2 42 7.3 WSW 20 24 11 13 1011.4 1011.3 0.0
28/03:30pm 22.9 19.3 9.7 43 7.2 W 19 30 10 16 1011.6 1011.5 0.0
28/03:00pm 22.5 18.8 10.0 45 6.8 W 20 32 11 17 1011.9 1011.8 0.0
28/02:30pm 21.9 17.8 8.8 43 7.0 W 20 30 11 16 1012.2 1012.1 0.0
28/02:00pm 21.7 17.9 9.9 47 6.4 WSW 20 30 11 16 1012.4 1012.3 0.0
28/01:30pm 21.2 17.0 9.8 48 6.2 WSW 22 30 12 16 1012.9 1012.8 0.0
28/01:00pm 20.8 17.1 10.3 51 5.7 W 20 30 11 16 1013.5 1013.3 0.0
28/12:30pm 19.8 15.7 10.0 53 5.3 WSW 22 30 12 16 1014.1 1013.9 0.0
28/12:00pm 19.3 15.7 10.6 57 4.7 W 20 30 11 16 1014.4 1014.2 0.0
28/11:30am 18.9 15.5 11.2 61 4.2 WNW 20 28 11 15 1014.7 1014.5 0.0
28/11:00am 18.2 15.1 12.2 68 3.3 W 20 32 11 17 1014.9 1014.7 0.0
28/10:30am 17.3 14.4 12.2 72 2.8 W 19 26 10 14 1015.0 1014.8 0.0
28/10:00am 16.0 13.6 11.4 74 2.5 WNW 15 20 8 11 1015.1 1014.9 0.0
28/09:30am 15.2 13.5 12.3 83 1.6 WNW 13 17 7 9 1015.0 1014.8 0.0
28/09:00am 12.7 12.1 11.6 93 0.6 WSW 6 9 3 5 1014.8 1014.6 9.6
28/08:30am 11.0 10.0 10.2 95 0.4 SSW 6 7 3 4 1014.6 1014.4 9.4
28/08:00am 8.6 8.1 7.8 95 0.4 CALM 0 0 0 0 1014.5 1014.3 9.4
28/07:30am 8.4 7.8 7.6 95 0.4 CALM 0 6 0 3 1014.2 1014.0 9.4
28/07:00am 7.8 7.1 6.9 94 0.4 CALM 0 0 0 0 1014.0 1013.8 9.4
28/06:30am 7.8 7.1 6.9 94 0.4 CALM 0 0 0 0 1013.8 1013.6 9.4
28/06:00am 8.8 7.6 7.9 94 0.4 S 4 7 2 4 1013.6 1013.4 9.4
28/05:30am 8.7 8.2 7.8 94 0.4 CALM 0 0 0 0 1013.4 1013.2 9.4
28/05:00am 9.2 8.8 8.3 94 0.4 CALM 0 0 0 0 1013.1 1013.0 9.4
28/04:30am 9.0 7.4 7.9 93 0.5 NE 6 7 3 4 1013.1 1013.0 9.4
28/04:00am 9.4 9.0 8.3 93 0.5 CALM 0 6 0 3 1013.1 1013.0 9.4
28/03:30am 10.7 9.3 9.6 93 0.6 ENE 7 9 4 5 1013.3 1013.1 9.4
28/03:00am 10.6 9.7 9.4 92 0.6 SSE 4 9 2 5 1013.1 1013.0 9.4
28/02:30am 10.6 9.1 9.0 90 0.8 NNE 7 9 4 5 1013.5 1013.3 9.4
28/02:00am 11.8 10.7 10.0 89 0.9 ENE 6 11 3 6 1013.7 1013.5 9.4
28/01:30am 12.2 9.8 10.1 87 1.1 WNW 13 19 7 10 1013.6 1013.4 9.4
28/01:00am 12.4 9.1 10.8 90 0.8 W 19 22 10 12 1013.3 1013.1 9.4
28/12:30am 12.1 9.9 10.8 92 0.7 WSW 13 17 7 9 1013.4 1013.2 9.4
28/12:00am 11.5 10.0 10.4 93 0.6 SSW 9 13 5 7 1013.5 1013.3 9.4
 
Date/Time
EDT
Temp
°C
App
Temp
°C
Dew
Point
°C
Rel
Hum
%
Delta-T
°C
Wind Press
QNH
hPa
Press
MSL
hPa
Rain since
9am
mm
Dir  Spd
km/h
Gust
km/h
Spd
kts
Gust
kts
27/11:30pm 11.3 11.0 10.2 93 0.6 SW 2 7 1 4 1013.5 1013.3 9.4
27/11:00pm 11.4 10.2 10.3 93 0.6 SW 7 9 4 5 1013.5 1013.3 9.4
27/10:30pm 11.4 9.8 10.1 92 0.7 SW 9 11 5 6 1013.5 1013.3 9.4
27/10:00pm 12.0 10.5 10.6 91 0.7 WSW 9 11 5 6 1013.5 1013.3 9.4
27/09:30pm 12.1 11.0 10.7 91 0.7 WSW 7 9 4 5 1013.5 1013.3 9.4
27/09:00pm 12.4 11.6 11.0 91 0.7 SSW 6 7 3 4 1013.1 1013.0 9.4
27/08:30pm 12.6 11.8 11.0 90 0.8 NW 6 9 3 5 1012.8 1012.7 9.4
27/08:00pm 13.4 12.4 11.1 86 1.2 SW 7 9 4 5 1012.2 1012.1 9.4
27/07:30pm 13.5 10.7 11.2 86 1.2 WSW 17 22 9 12 1012.2 1012.1 9.4
27/07:00pm 13.9 10.5 11.2 84 1.4 W 20 28 11 15 1012.1 1012.0 9.4
27/06:30pm 14.1 9.6 11.4 84 1.4 W 26 33 14 18 1011.4 1011.3 9.4
27/06:00pm 13.9 8.4 11.8 87 1.1 W 32 41 17 22 1011.2 1011.1 9.2
27/05:49pm 14.6 8.7 12.3 86 1.3 W 35 54 19 29 1011.3 1011.2 9.0
27/05:46pm 14.5 8.2 12.2 86 1.3 W 37 54 20 29 1011.2 1011.1 9.0
27/05:40pm 14.6 8.6 12.1 85 1.4 W 35 54 19 29 1011.0 1010.9 8.8
27/05:30pm 14.8 9.4 12.8 88 1.1 WSW 33 44 18 24 1010.6 1010.5 8.4
27/05:26pm 14.9 9.1 12.8 87 1.2 W 35 44 19 24 1010.6 1010.5 8.0
27/05:00pm 15.1 8.9 12.6 85 1.4 W 37 46 20 25 1011.0 1010.9 6.8
27/04:51pm 15.8 7.8 12.4 80 1.9 WSW 46 70 25 38 1010.1 1010.0 6.4
27/04:41pm 16.9 10.9 14.4 85 1.4 WSW 39 57 21 31 1009.7 1009.6 6.4
27/04:35pm 16.8 11.8 15.0 89 1.0 SW 35 43 19 23 1009.6 1009.5 6.2
27/04:30pm 17.2 12.6 15.2 88 1.2 SW 33 43 18 23 1009.3 1009.2 5.8
27/04:24pm 17.0 12.3 14.8 87 1.3 WSW 33 44 18 24 1009.6 1009.5 5.6
27/04:12pm 17.0 11.5 14.8 87 1.3 WSW 37 50 20 27 1009.5 1009.4 5.6
27/04:01pm 17.2 11.8 15.0 87 1.3 WSW 37 46 20 25 1009.1 1009.0 5.2
27/04:00pm 17.3 11.9 15.1 87 1.3 WSW 37 44 20 24 1009.1 1009.0 5.2
27/03:30pm 17.5 11.0 15.1 86 1.4 WSW 43 65 23 35 1008.7 1008.6 2.0
27/03:27pm 17.7 10.6 15.1 85 1.5 WSW 46 70 25 38 1008.8 1008.7 1.2
27/03:20pm 18.7 10.7 15.6 82 1.8 SW 52 70 28 38 1006.7 1006.6 0.4
27/03:17pm 18.9 10.4 15.4 80 2.1 SW 54 69 29 37 1006.6 1006.5 0.2
27/03:00pm 21.1 12.8 15.0 68 3.6 SW 52 70 28 38 1005.5 1005.4 0.0
27/02:51pm 21.4 13.7 16.4 73 3.0 SW 52 74 28 40 1005.5 1005.4 0.0
27/02:39pm 22.4 12.6 16.4 69 3.7 SW 63 91 34 49 1004.3 1004.2 0.0
27/02:33pm 24.1 15.6 16.4 62 4.7 WSW 56 91 30 49 1003.8 1003.7 0.0
27/02:32pm 24.6 16.1 16.3 60 5.1 W 56 91 30 49 1004.0 1003.9 0.0
27/02:31pm 26.8 19.1 16.4 53 6.4 W 52 91 28 49 1003.7 1003.6 0.0
27/02:30pm 31.8 24.0 15.3 37 10.2 W 50 91 27 49 1003.3 1003.2 0.0
27/02:27pm 33.6 26.4 13.1 29 12.4 WNW 43 67 23 36 1002.9 1002.8 0.0
27/02:00pm 35.0 28.8 12.6 26 13.5 WNW 37 63 20 34 1002.4 1002.3 0.0
27/01:34pm 37.0 31.3 13.1 24 14.6 NW 35 57 19 31 1001.9 1001.8 0.0
27/01:30pm 36.8 31.3 13.5 24 14.3 NW 35 48 19 26 1002.0 1001.9 0.0
27/01:14pm 36.3 31.6 13.1 25 14.1 WNW 30 48 16 26 1002.5 1002.4 0.0
27/01:07pm 35.6 33.5 14.8 28 13.0 WNW 19 37 10 20 1002.7 1002.6 0.0
27/01:00pm 34.9 35.6 16.2 32 11.9 NW 7 19 4 10 1003.0 1002.9 0.0
27/12:30pm 30.7 31.3 15.2 39 9.6 SE 6 7 3 4 1003.2 1003.1 0.0
27/12:00pm 28.2 30.6 18.9 57 6.0 SSW 4 9 2 5 1003.8 1003.7 0.0
27/11:30am 26.8 29.0 19.2 63 4.9 ENE 6 9 3 5 1004.1 1004.0 0.0
27/11:00am 23.0 25.3 19.8 82 2.1 NE 7 11 4 6 1004.8 1004.7 0.0
27/10:30am 20.7 23.2 19.0 90 1.1 NNW 4 7 2 4 1005.4 1005.3 0.0
27/10:00am 19.2 20.9 18.4 95 0.5 NNE 7 11 4 6 1005.6 1005.5 0.0
27/09:34am 18.6 20.2 17.9 96 0.4 N 6 9 3 5 1006.0 1005.9 0.0
27/09:31am 18.7 20.4 18.0 96 0.4 N 6 9 3 5 1006.1 1006.0 0.0
27/09:30am 18.7 20.4 18.0 96 0.4 N 6 9 3 5 1006.1 1006.0 0.0
27/09:00am 17.8 18.9 17.2 96 0.4 NE 7 11 4 6 1006.4 1006.3 0.0
27/08:30am 17.2 18.3 16.6 96 0.4 ENE 6 9 3 5 1006.8 1006.7 0.0
27/08:00am 16.8 17.5 16.2 96 0.4 NE 7 9 4 5 1007.2 1007.1 0.0
27/07:30am 16.9 18.3 16.3 96 0.4 NNE 4 7 2 4 1007.5 1007.4 0.0
27/07:00am 17.0 18.0 16.4 96 0.4 N 6 9 3 5 1007.4 1007.3 0.0
27/06:30am 17.2 18.7 16.6 96 0.4 E 4 7 2 4 1007.5 1007.4 0.0
27/06:00am 17.2 18.3 16.6 96 0.4 ENE 6 9 3 5 1007.7 1007.6 0.0
27/05:30am 17.2 18.1 16.6 96 0.4 NE 7 11 4 6 1007.9 1007.8 0.0
27/05:00am 17.3 18.2 16.5 95 0.5 ENE 7 11 4 6 1008.1 1008.0 0.0
27/04:30am 17.2 17.6 16.4 95 0.5 ENE 9 15 5 8 1008.3 1008.2 0.0
27/04:00am 17.1 17.5 16.3 95 0.5 NE 9 13 5 7 1008.6 1008.5 0.0
27/03:30am 17.4 17.8 16.4 94 0.6 NE 9 13 5 7 1009.1 1009.0 0.0
27/03:00am 17.5 18.0 16.5 94 0.6 NE 9 11 5 6 1009.8 1009.7 0.0
27/02:30am 17.6 17.7 16.6 94 0.6 ENE 11 15 6 8 1010.2 1010.1 0.0
27/02:00am 17.5 17.6 16.5 94 0.6 ENE 11 13 6 7 1010.8 1010.7 0.0
27/01:30am 17.3 16.9 16.3 94 0.6 ENE 13 20 7 11 1011.0 1010.9 0.0
27/01:00am 17.4 17.1 16.4 94 0.6 ENE 13 19 7 10 1011.5 1011.4 0.0
27/12:30am 17.4 17.0 16.1 92 0.8 ENE 13 19 7 10 1012.1 1012.0 0.0
27/12:29am 17.4 17.0 16.1 92 0.8 ENE 13 19 7 10 1012.1 1012.0 0.0
27/12:00am 17.6 17.1 15.8 89 1.1 ENE 13 20 7 11 1012.6 1012.5 0.0
 
Date/Time
EDT
Temp
°C
App
Temp
°C
Dew
Point
°C
Rel
Hum
%
Delta-T
°C
Wind Press
QNH
hPa
Press
MSL
hPa
Rain since
9am
mm
Dir  Spd
km/h
Gust
km/h
Spd
kts
Gust
kts
26/11:37pm 17.5 17.3 15.7 89 1.1 ENE 11 15 6 8 1012.9 1012.8 0.0
26/11:30pm 17.4 17.2 15.6 89 1.1 ENE 11 15 6 8 1013.1 1013.0 0.0
26/11:00pm 17.8 17.6 15.6 87 1.3 ENE 11 17 6 9 1013.4 1013.2 0.0
26/10:30pm 18.2 17.2 15.6 85 1.5 ENE 15 20 8 11 1013.9 1013.7 0.0
26/10:00pm 18.4 18.5 15.5 83 1.7 ENE 9 15 5 8 1014.2 1014.0 0.0
26/09:30pm 19.3 19.1 15.8 80 2.1 ENE 11 19 6 10 1014.1 1013.9 0.0
26/09:00pm 19.8 19.2 15.7 77 2.4 E 13 20 7 11 1013.8 1013.6 0.0
26/08:30pm 20.5 19.9 15.7 74 2.9 E 13 19 7 10 1013.7 1013.5 0.0
26/08:00pm 21.4 20.4 15.7 70 3.4 ENE 15 22 8 12 1013.4 1013.2 0.0
26/07:30pm 22.4 21.9 16.0 67 3.9 ENE 13 24 7 13 1013.1 1013.0 0.0
26/07:00pm 23.4 22.7 16.4 64 4.3 ENE 15 22 8 12 1012.8 1012.7 0.0
26/06:30pm 24.6 23.8 17.1 63 4.7 ENE 17 24 9 13 1012.3 1012.2 0.0
26/06:00pm 25.5 25.2 17.4 61 5.1 ENE 15 20 8 11 1012.1 1012.0 0.0
26/05:30pm 26.5 26.0 17.8 58 5.5 ENE 17 24 9 13 1011.8 1011.7 0.0
26/05:00pm 26.9 26.4 17.7 57 5.8 ENE 17 30 9 16 1011.8 1011.7 0.0
26/04:30pm 27.1 26.1 16.7 53 6.5 NE 17 24 9 13 1011.7 1011.6 0.0
26/04:00pm 27.0 26.3 16.3 52 6.6 NE 15 22 8 12 1011.9 1011.8 0.0
26/03:30pm 27.5 26.8 16.5 51 6.8 NNE 15 20 8 11 1012.2 1012.1 0.0
26/03:00pm 27.2 27.3 16.5 52 6.6 NE 11 22 6 12 1012.3 1012.2 0.0
26/02:30pm 27.5 27.5 17.1 53 6.5 NE 13 20 7 11 1012.8 1012.7 0.0
26/02:00pm 26.8 27.6 17.3 56 6.0 NE 9 17 5 9 1013.3 1013.1 0.0
26/01:30pm 25.9 26.3 16.2 55 6.0 NE 9 17 5 9 1013.9 1013.7 0.0
26/01:00pm 25.7 26.8 17.1 59 5.4 SE 7 13 4 7 1014.5 1014.3 0.0
26/12:30pm 24.7 25.4 16.2 59 5.2 E 7 13 4 7 1015.2 1015.0 0.0
26/12:00pm 23.5 24.9 16.3 64 4.4 WNW 4 7 2 4 1015.6 1015.4 0.0
26/11:30am 22.6 24.1 16.6 69 3.7 SW 4 9 2 5 1015.7 1015.5 0.0
26/11:00am 21.4 22.6 16.8 75 2.8 SW 6 11 3 6 1016.0 1015.9 0.0
26/10:30am 20.8 21.5 17.0 79 2.3 SW 9 13 5 7 1016.0 1015.9 0.0
26/10:12am 20.3 20.8 16.5 79 2.3 W 9 11 5 6 1016.0 1015.9 0.0
26/10:00am 19.8 20.6 16.3 80 2.1 WSW 7 13 4 7 1015.8 1015.6 0.0
26/09:41am 19.7 19.7 16.3 81 2.0 WSW 11 13 6 7 1015.8 1015.6 0.0
26/09:38am 19.5 19.5 16.2 81 2.0 WSW 11 13 6 7 1015.8 1015.6 0.0
26/09:30am 19.5 19.5 16.3 82 1.9 WSW 11 15 6 8 1015.7 1015.5 0.0
26/09:23am 19.4 19.4 16.2 82 1.9 WSW 11 15 6 8 1015.8 1015.6 0.0
26/09:20am 19.5 19.9 16.3 82 1.9 W 9 15 5 8 1015.7 1015.5 0.0
26/09:00am 18.6 18.8 16.8 89 1.1 WSW 11 15 6 8 1015.6 1015.4 0.0
26/08:30am 18.1 17.6 16.8 92 0.8 WSW 15 17 8 9 1015.4 1015.2 0.0
26/08:01am 17.3 16.5 16.2 93 0.7 WSW 15 19 8 10 1015.1 1014.9 0.0
26/08:00am 17.3 16.5 16.2 93 0.7 WSW 15 19 8 10 1015.1 1014.9 0.0
26/07:39am 16.6 15.5 15.3 92 0.8 WSW 15 17 8 9 1014.9 1014.7 0.0
26/07:30am 16.8 15.8 15.5 92 0.8 WSW 15 17 8 9 1014.8 1014.6 0.0
26/07:00am 17.0 16.6 15.3 90 1.0 WSW 11 13 6 7 1014.7 1014.5 0.0
26/06:41am 17.2 16.9 15.5 90 1.0 WSW 11 15 6 8 1014.5 1014.3 0.0
26/06:30am 17.3 16.6 15.5 89 1.1 WSW 13 17 7 9 1014.4 1014.2 0.0
26/06:00am 18.2 17.5 16.4 89 1.1 WSW 15 19 8 10 1014.0 1013.8 0.0
26/05:30am 18.0 18.0 16.3 90 1.0 WSW 11 17 6 9 1013.9 1013.7 0.0
26/05:00am 17.4 16.8 15.6 89 1.1 W 13 17 7 9 1013.6 1013.4 0.0
26/04:30am 17.5 16.5 15.5 88 1.2 W 15 19 8 10 1013.4 1013.2 0.0
26/04:00am 17.5 16.0 15.3 87 1.3 WNW 17 19 9 10 1013.4 1013.2 0.0
26/03:30am 17.7 16.2 15.3 86 1.4 WNW 17 20 9 11 1013.5 1013.3 0.0
26/03:00am 17.5 16.7 15.1 86 1.4 WNW 13 15 7 8 1013.7 1013.5 0.0
26/02:30am 16.8 15.9 14.8 88 1.2 WNW 13 17 7 9 1013.7 1013.5 0.0
26/02:00am 16.9 16.3 14.5 86 1.4 WSW 11 13 6 7 1013.6 1013.4 0.0
26/01:30am 17.1 17.3 14.6 85 1.4 WSW 7 9 4 5 1013.5 1013.3 0.0
26/01:00am 17.8 18.0 14.7 82 1.8 SSW 7 9 4 5 1013.7 1013.5 0.0
26/12:30am 18.1 19.8 15.2 83 1.7 CALM 0 0 0 0 1013.5 1013.3 0.0
26/12:00am 17.9 19.5 15.0 83 1.7 CALM 0 4 0 2 1013.3 1013.1 0.0
 
Date/Time
EDT
Temp
°C
App
Temp
°C
Dew
Point
°C
Rel
Hum
%
Delta-T
°C
Wind Press
QNH
hPa
Press
MSL
hPa
Rain since
9am
mm
Dir  Spd
km/h
Gust
km/h
Spd
kts
Gust
kts
25/11:30pm 19.3 20.9 15.0 76 2.5 CALM 0 0 0 0 1013.4 1013.2 0.0
25/11:00pm 19.1 19.8 15.6 80 2.1 NNW 6 9 3 5 1013.4 1013.2 0.0
25/10:30pm 20.2 20.3 15.6 75 2.7 SW 9 9 5 5 1013.6 1013.4 0.0
25/10:00pm 20.7 22.3 14.8 69 3.5 CALM 0 0 0 0 1013.3 1013.1 0.0
25/09:30pm 20.8 22.3 14.7 68 3.6 CALM 0 0 0 0 1013.1 1013.0 0.0
25/09:00pm 21.0 21.3 14.6 67 3.8 NE 6 9 3 5 1012.7 1012.6 0.0
25/08:30pm 22.1 22.3 14.7 63 4.4 E 7 11 4 6 1012.3 1012.2 0.0
25/08:00pm 22.6 22.4 14.7 61 4.7 ENE 9 15 5 8 1011.8 1011.7 0.0
25/07:30pm 23.5 22.7 15.0 59 5.1 E 13 17 7 9 1011.6 1011.5 0.0

Other Formats:

Comma delimited format used in spreadsheet applications
http://www.bom.gov.au/fwo/IDV60801/IDV60801.94891.axf

JavaScript Object Notation format (JSON) in row-major order
http://www.bom.gov.au/fwo/IDV60801/IDV60801.94891.json